Time;durP1;ratioP1;P1;durP2;ratioP2;P2;SDS_P1;SDS_P2;PMS_P1;PMS_P2;Temp;Humidity;BMP_temperature;BMP_pressure;BME280_temperature;BME280_humidity;BME280_pressure;Samples;Min_cycle;Max_cycle;Signal;HPM_P1;HPM_P2
2021/06/25 00:02:23;;;;;;;49.58;46.10;;;;;;;20.11;71.65;93686.00;5070720;28;20028;-48
2021/06/25 00:04:49;;;;;;;47.90;44.47;;;;;;;20.29;71.14;93694.84;5070376;28;20513;-48
2021/06/25 00:07:14;;;;;;;34.15;31.15;;;;;;;20.30;70.49;93699.09;5082682;28;20119;-47
2021/06/25 00:09:40;;;;;;;28.00;25.60;;;;;;;20.39;69.46;93698.28;5090592;28;20475;-48
2021/06/25 00:12:07;;;;;;;29.38;25.67;;;;;;;20.38;69.82;93699.59;5088684;28;20062;-49
2021/06/25 00:14:33;;;;;;;32.47;29.20;;;;;;;20.32;69.86;93696.44;5090429;28;20416;-49
2021/06/25 00:16:59;;;;;;;33.70;30.50;;;;;;;20.31;70.25;93697.78;5090691;28;20028;-49
2021/06/25 00:19:24;;;;;;;32.75;30.10;;;;;;;20.30;70.14;93693.50;5072762;28;20425;-50
2021/06/25 00:21:50;;;;;;;32.33;29.67;;;;;;;20.30;70.12;93691.44;5088745;28;20036;-49
2021/06/25 00:24:16;;;;;;;36.78;34.22;;;;;;;20.18;70.87;93689.94;5090551;28;20054;-48
2021/06/25 00:26:42;;;;;;;36.97;34.25;;;;;;;20.10;70.76;93689.41;5090277;28;20115;-46
2021/06/25 00:29:07;;;;;;;35.63;32.83;;;;;;;20.10;70.77;93701.34;5090511;28;20024;-45
2021/06/25 00:31:33;;;;;;;31.95;29.20;;;;;;;20.12;70.27;93681.16;5090121;28;20024;-45
2021/06/25 00:33:58;;;;;;;33.72;30.92;;;;;;;20.08;70.38;93694.88;5091664;28;20115;-46
2021/06/25 00:36:23;;;;;;;34.22;31.52;;;;;;;20.06;70.76;93684.28;5109782;28;20524;-45
2021/06/25 00:38:49;;;;;;;27.95;25.75;;;;;;;20.12;69.93;93681.16;5110351;28;20020;-46
2021/06/25 00:41:14;;;;;;;157.68;145.38;;;;;;;19.94;70.60;93677.94;5110688;28;20024;-46
2021/06/25 00:43:40;;;;;;;127.15;117.10;;;;;;;19.77;71.73;93661.44;5105061;28;20016;-46
2021/06/25 00:46:06;;;;;;;93.93;87.88;;;;;;;19.85;70.25;93647.94;5077721;28;20473;-45
2021/06/25 00:48:32;;;;;;;93.38;86.78;;;;;;;19.84;70.47;93649.25;5080509;28;20086;-45
2021/06/25 00:50:58;;;;;;;134.23;125.50;;;;;;;19.81;70.67;93625.25;5076590;28;20517;-46
2021/06/25 00:53:24;;;;;;;184.75;168.13;;;;;;;19.90;70.17;93646.13;5082767;28;20055;-45
2021/06/25 00:55:49;;;;;;;111.00;103.80;;;;;;;19.83;70.58;93649.88;5080716;28;20020;-45
2021/06/25 00:58:17;;;;;;;54.35;50.60;;;;;;;19.63;70.91;93629.72;5073511;28;20078;-47
2021/06/25 01:00:43;;;;;;;46.67;43.33;;;;;;;19.81;70.84;93649.75;5079230;28;20405;-46
2021/06/25 01:03:10;;;;;;;99.57;92.88;;;;;;;19.79;70.86;93641.94;5077173;28;20031;-47
2021/06/25 01:05:35;;;;;;;41.08;37.33;;;;;;;19.52;71.76;93630.41;5078877;28;20024;-46
2021/06/25 01:08:01;;;;;;;36.47;34.00;;;;;;;19.56;71.01;93630.66;5078627;28;20513;-46
2021/06/25 01:10:27;;;;;;;34.85;31.95;;;;;;;19.66;70.47;93623.63;5077275;28;20021;-46
2021/06/25 01:12:52;;;;;;;32.92;30.50;;;;;;;19.64;70.32;93631.91;5076948;28;20051;-46
2021/06/25 01:15:18;;;;;;;33.65;31.50;;;;;;;19.42;70.87;93636.09;5078093;28;20020;-46
2021/06/25 01:17:44;;;;;;;39.45;36.38;;;;;;;19.27;71.92;93628.09;5080184;28;20023;-45
2021/06/25 01:20:18;;;;;;;37.30;34.15;;;;;;;19.47;71.64;93632.22;5077356;28;20025;-46
2021/06/25 01:22:44;;;;;;;30.98;28.27;;;;;;;19.44;70.85;93627.84;5077127;28;20036;-47
2021/06/25 01:25:19;;;;;;;31.33;28.95;;;;;;;19.47;70.77;93623.06;5079067;28;20518;-45
2021/06/25 01:27:50;;;;;;;33.17;29.85;;;;;;;19.48;70.97;93616.16;5079355;28;20031;-46
2021/06/25 01:30:19;;;;;;;36.78;34.00;;;;;;;19.29;71.54;93613.50;5078442;28;20031;-45
2021/06/25 01:32:45;;;;;;;37.45;34.85;;;;;;;19.13;71.91;93620.84;5077061;28;20032;-47
2021/06/25 01:35:11;;;;;;;36.67;33.80;;;;;;;19.05;71.76;93609.13;5080488;28;20048;-47
2021/06/25 01:37:37;;;;;;;42.50;33.85;;;;;;;19.00;72.32;93626.97;5078377;28;20028;-47
2021/06/25 01:40:05;;;;;;;34.78;32.05;;;;;;;19.11;71.41;93621.44;5077606;28;20420;-46
2021/06/25 01:42:32;;;;;;;35.40;32.80;;;;;;;19.22;71.16;93625.63;5077345;28;20029;-47
2021/06/25 01:44:59;;;;;;;33.83;31.20;;;;;;;19.07;71.67;93621.19;5077888;28;20031;-46
2021/06/25 01:47:25;;;;;;;37.42;34.78;;;;;;;19.17;72.17;93616.22;5078999;28;20013;-47
2021/06/25 01:49:50;;;;;;;32.72;29.77;;;;;;;19.23;71.58;93633.41;5077488;28;20379;-47
2021/06/25 01:52:17;;;;;;;28.42;26.42;;;;;;;19.31;71.08;93636.75;5078083;28;20020;-46
2021/06/25 01:54:43;;;;;;;31.40;28.30;;;;;;;19.23;70.90;93625.03;5078818;28;20021;-47
2021/06/25 01:57:09;;;;;;;31.92;29.48;;;;;;;19.13;71.18;93621.56;5079199;28;20020;-45
2021/06/25 01:59:34;;;;;;;32.65;30.50;;;;;;;19.02;71.31;93632.69;5077910;28;20600;-45
2021/06/25 02:02:00;;;;;;;33.08;30.95;;;;;;;18.99;72.05;93612.25;5077210;28;20031;-46
2021/06/25 02:04:25;;;;;;;34.15;31.73;;;;;;;19.01;72.13;93620.78;5078968;28;20027;-47
2021/06/25 02:06:50;;;;;;;35.97;33.00;;;;;;;18.96;71.71;93624.66;5077736;28;20024;-48
2021/06/25 02:09:16;;;;;;;31.17;28.75;;;;;;;18.98;71.05;93621.25;5078117;28;20028;-45
2021/06/25 02:11:41;;;;;;;26.92;24.80;;;;;;;18.91;70.84;93622.91;5076845;28;20027;-47
2021/06/25 02:14:07;;;;;;;30.00;26.88;;;;;;;18.87;71.23;93631.03;5077286;28;20031;-46
2021/06/25 02:16:32;;;;;;;31.20;28.48;;;;;;;18.93;71.31;93634.22;5078400;28;20024;-47
2021/06/25 02:18:58;;;;;;;30.60;28.48;;;;;;;18.79;71.56;93630.50;5077068;28;20024;-48
2021/06/25 02:21:23;;;;;;;31.05;28.65;;;;;;;18.79;72.19;93630.50;5067499;28;20053;-46
2021/06/25 02:23:49;;;;;;;29.67;27.67;;;;;;;18.82;71.71;93637.69;5074419;28;20028;-45
2021/06/25 02:26:14;;;;;;;28.98;26.45;;;;;;;18.82;72.07;93651.69;5088034;28;20036;-46
2021/06/25 02:28:40;;;;;;;30.65;28.00;;;;;;;18.76;71.66;93651.28;5087997;28;20031;-45
2021/06/25 02:31:05;;;;;;;32.33;29.50;;;;;;;18.49;72.36;93634.06;5087867;28;20039;-46
2021/06/25 02:33:31;;;;;;;32.15;29.42;;;;;;;18.67;72.34;93650.00;5087897;28;20024;-45
2021/06/25 02:35:56;;;;;;;32.35;29.40;;;;;;;18.73;71.68;93649.69;5091717;28;20028;-45
2021/06/25 02:38:22;;;;;;;33.58;30.67;;;;;;;18.50;72.19;93639.06;5091462;28;20188;-45
2021/06/25 02:40:47;;;;;;;33.08;30.65;;;;;;;18.63;72.62;93655.31;5091421;28;20020;-46
2021/06/25 02:43:12;;;;;;;30.95;28.15;;;;;;;18.64;72.29;93651.22;5092357;28;20035;-46
2021/06/25 02:45:38;;;;;;;34.15;30.92;;;;;;;18.66;71.64;93653.41;5092488;28;20047;-46
2021/06/25 02:48:04;;;;;;;30.75;28.48;;;;;;;18.46;72.08;93655.56;5092179;28;20077;-45
2021/06/25 02:50:29;;;;;;;27.85;25.80;;;;;;;18.42;72.08;93652.47;5092293;28;20617;-46
2021/06/25 02:52:55;;;;;;;26.15;24.45;;;;;;;18.56;71.23;93649.94;5090295;28;20024;-46
2021/06/25 02:55:21;;;;;;;29.10;26.85;;;;;;;18.44;71.77;93655.44;5089927;28;20032;-44
2021/06/25 02:57:46;;;;;;;29.70;27.40;;;;;;;18.57;71.63;93643.00;5092347;28;20046;-45
2021/06/25 03:00:14;;;;;;;30.25;27.40;;;;;;;18.45;72.11;93636.59;5092238;28;20031;-45
2021/06/25 03:02:41;;;;;;;28.02;25.65;;;;;;;18.52;71.55;93635.66;5092216;28;20106;-45
2021/06/25 03:05:08;;;;;;;24.42;22.13;;;;;;;18.51;71.47;93615.38;5090686;28;20085;-44
2021/06/25 03:07:33;;;;;;;27.58;25.35;;;;;;;18.62;71.40;93639.16;5077323;28;20036;-44
2021/06/25 03:09:58;;;;;;;30.13;27.13;;;;;;;18.58;72.00;93631.22;5085292;28;20551;-45
2021/06/25 03:12:24;;;;;;;28.80;26.13;;;;;;;18.69;71.79;93646.63;5091685;28;20056;-45
2021/06/25 03:14:50;;;;;;;33.13;24.45;;;;;;;18.65;71.05;93632.34;5091016;28;20160;-47
2021/06/25 03:17:15;;;;;;;27.08;24.88;;;;;;;18.58;71.45;93628.41;5091610;28;20080;-44
2021/06/25 03:19:41;;;;;;;33.55;30.77;;;;;;;18.37;72.58;93628.34;5091782;28;20028;-44
2021/06/25 03:22:06;;;;;;;28.42;25.90;;;;;;;18.46;72.10;93626.88;5090156;28;20544;-44
2021/06/25 03:24:32;;;;;;;28.02;25.75;;;;;;;18.33;72.20;93635.72;5091500;28;20032;-45
2021/06/25 03:26:58;;;;;;;28.77;26.13;;;;;;;18.48;70.72;93627.75;5091460;28;20066;-45
2021/06/25 03:29:24;;;;;;;30.20;27.23;;;;;;;18.38;71.58;93632.63;5090686;28;20066;-45
2021/06/25 03:31:49;;;;;;;25.50;23.30;;;;;;;18.46;71.27;93630.41;5105907;28;20027;-46
2021/06/25 03:34:14;;;;;;;28.02;25.38;;;;;;;18.41;71.85;93631.41;5110756;28;20027;-46
2021/06/25 03:36:40;;;;;;;141.27;127.18;;;;;;;18.39;71.82;93639.66;5110230;28;20047;-45
2021/06/25 03:39:06;;;;;;;25.88;23.88;;;;;;;18.40;72.39;93638.34;5111079;27;20050;-46
2021/06/25 03:41:31;;;;;;;27.05;24.90;;;;;;;18.44;71.71;93635.84;5110706;28;20024;-45
2021/06/25 03:43:57;;;;;;;27.52;24.75;;;;;;;18.43;71.84;93634.34;5111068;27;20039;-44
2021/06/25 03:46:23;;;;;;;26.45;24.38;;;;;;;18.53;71.69;93637.13;5110969;28;20698;-46
2021/06/25 03:48:49;;;;;;;27.30;24.98;;;;;;;18.65;72.06;93635.16;5111723;28;20111;-46
2021/06/25 03:51:15;;;;;;;27.52;25.20;;;;;;;18.62;72.50;93631.50;5111761;28;20049;-45
2021/06/25 03:53:40;;;;;;;29.63;26.98;;;;;;;18.47;72.90;93633.94;5106671;28;20544;-45
2021/06/25 03:56:10;;;;;;;31.33;28.42;;;;;;;18.65;72.75;93629.56;5105223;28;20020;-48
2021/06/25 03:58:40;;;;;;;31.50;28.73;;;;;;;18.71;72.72;93627.19;5111299;28;20110;-48
2021/06/25 04:01:06;;;;;;;29.75;27.38;;;;;;;18.69;72.41;93641.75;5094988;28;20102;-48
2021/06/25 04:03:32;;;;;;;29.98;27.52;;;;;;;18.71;72.76;93641.16;5098150;28;20073;-48
2021/06/25 04:05:57;;;;;;;29.80;27.27;;;;;;;18.83;72.50;93645.50;5095522;28;20497;-47
2021/06/25 04:08:26;;;;;;;26.42;23.77;;;;;;;18.90;71.92;93638.97;5070714;28;20035;-50
2021/06/25 04:10:51;;;;;;;29.33;26.25;;;;;;;18.89;72.08;93640.31;5070215;28;20056;-48
2021/06/25 04:13:17;;;;;;;28.77;25.77;;;;;;;18.85;72.80;93642.09;5070599;28;20059;-49
2021/06/25 04:15:42;;;;;;;28.63;25.70;;;;;;;19.01;72.68;93642.44;5070231;28;20451;-44
2021/06/25 04:18:08;;;;;;;28.13;25.90;;;;;;;19.10;72.34;93644.44;5077497;28;20027;-47
2021/06/25 04:20:33;;;;;;;28.30;26.23;;;;;;;19.11;72.23;93646.63;5090217;28;20436;-46
2021/06/25 04:22:59;;;;;;;28.75;25.77;;;;;;;19.14;72.19;93645.44;5090664;28;20066;-46
2021/06/25 04:25:24;;;;;;;24.33;22.55;;;;;;;19.18;71.87;93644.97;5090347;28;20485;-46
2021/06/25 04:27:50;;;;;;;24.08;22.05;;;;;;;19.10;71.90;93647.94;5089558;28;20107;-48
2021/06/25 04:30:16;;;;;;;26.83;24.27;;;;;;;19.15;72.12;93646.16;5089998;28;20054;-47
2021/06/25 04:32:42;;;;;;;27.85;24.88;;;;;;;19.22;72.31;93650.81;5090253;28;20106;-47
2021/06/25 04:35:09;;;;;;;30.65;27.75;;;;;;;19.20;72.67;93640.22;5089947;28;20102;-47
2021/06/25 04:37:35;;;;;;;32.88;30.20;;;;;;;19.28;72.67;93640.75;5090025;28;20031;-46
2021/06/25 04:40:00;;;;;;;33.13;29.90;;;;;;;19.43;72.73;93636.81;5089935;28;20474;-46
2021/06/25 04:42:26;;;;;;;33.92;30.58;;;;;;;19.44;73.12;93641.09;5089748;28;20099;-46
2021/06/25 04:44:51;;;;;;;34.58;32.00;;;;;;;19.55;73.60;93632.75;5089808;28;20027;-47
2021/06/25 04:47:17;;;;;;;33.13;30.30;;;;;;;19.63;73.38;93638.84;5089461;28;20416;-47
2021/06/25 04:49:43;;;;;;;36.47;33.67;;;;;;;19.75;73.57;93647.28;5089747;28;20028;-47
2021/06/25 04:52:09;;;;;;;35.42;32.13;;;;;;;19.82;73.69;93635.13;5090067;28;20064;-47
2021/06/25 04:54:34;;;;;;;35.22;31.70;;;;;;;19.97;73.57;93653.53;5086754;28;20103;-48
2021/06/25 04:57:00;;;;;;;39.92;36.38;;;;;;;20.02;73.73;93650.41;5089229;28;20031;-49
2021/06/25 04:59:27;;;;;;;29.17;25.05;;;;;;;20.08;73.42;93653.56;5091176;28;20039;-46
2021/06/25 05:01:53;;;;;;;39.55;36.58;;;;;;;20.12;73.98;93648.22;5093111;28;20098;-48
2021/06/25 05:04:18;;;;;;;40.38;36.97;;;;;;;20.21;73.53;93655.09;5089853;28;20030;-47
2021/06/25 05:06:44;;;;;;;44.80;40.85;;;;;;;20.22;73.67;93640.47;5084856;28;20016;-46
2021/06/25 05:09:09;;;;;;;48.15;43.85;;;;;;;20.25;74.27;93638.50;5090036;28;20058;-46
2021/06/25 05:11:35;;;;;;;47.22;42.75;;;;;;;20.35;74.17;93625.13;5090102;28;20048;-46
2021/06/25 05:14:00;;;;;;;44.20;40.58;;;;;;;20.50;73.92;93635.84;5090981;28;20042;-50
2021/06/25 05:16:26;;;;;;;35.50;31.30;;;;;;;20.53;73.81;93629.00;5091720;28;20024;-48
2021/06/25 05:18:51;;;;;;;34.70;30.98;;;;;;;20.64;73.92;93631.06;5087177;28;20416;-48
2021/06/25 05:21:17;;;;;;;35.30;25.50;;;;;;;20.78;73.80;93623.50;5090102;28;20082;-46
2021/06/25 05:23:43;;;;;;;27.23;24.45;;;;;;;20.81;73.44;93625.06;5089723;28;20039;-46
2021/06/25 05:26:08;;;;;;;26.80;22.50;;;;;;;20.90;72.80;93627.00;5089832;28;20024;-48
2021/06/25 05:28:34;;;;;;;33.88;26.55;;;;;;;20.96;73.68;93624.56;5089707;28;20020;-47
2021/06/25 05:30:59;;;;;;;29.85;26.60;;;;;;;21.05;73.59;93623.72;5089680;28;20486;-46
2021/06/25 05:33:25;;;;;;;27.27;24.98;;;;;;;21.11;73.24;93610.03;5089281;28;20027;-48
2021/06/25 05:35:50;;;;;;;30.70;24.25;;;;;;;21.10;73.06;93610.66;5089388;28;20020;-48
2021/06/25 05:38:17;;;;;;;29.77;27.08;;;;;;;21.21;73.48;93607.06;5089378;28;20027;-46
2021/06/25 05:40:43;;;;;;;27.45;24.13;;;;;;;21.33;73.43;93612.66;5088915;28;20481;-47
2021/06/25 05:43:09;;;;;;;27.83;24.85;;;;;;;21.33;73.96;93610.56;5089344;28;20039;-47
2021/06/25 05:45:35;;;;;;;27.27;23.77;;;;;;;21.36;74.08;93611.41;5088636;28;20028;-46
2021/06/25 05:48:01;;;;;;;32.00;23.60;;;;;;;21.54;73.71;93616.00;5089186;28;20081;-47
2021/06/25 05:50:27;;;;;;;31.05;28.08;;;;;;;21.64;74.60;93613.00;5089195;28;20064;-49
2021/06/25 05:52:52;;;;;;;27.13;24.65;;;;;;;21.68;74.46;93610.41;5089433;28;20051;-46
2021/06/25 05:55:18;;;;;;;24.60;22.00;;;;;;;21.75;74.21;93609.41;5089207;28;20020;-46
2021/06/25 05:57:45;;;;;;;24.80;22.13;;;;;;;21.86;74.11;93608.66;5089514;28;20054;-45
2021/06/25 06:00:11;;;;;;;27.02;23.92;;;;;;;21.97;74.36;93609.91;5089084;28;20153;-49
2021/06/25 06:02:37;;;;;;;22.13;19.60;;;;;;;21.99;73.23;93602.34;5074087;28;20048;-48
2021/06/25 06:05:03;;;;;;;31.15;18.40;;;;;;;22.09;72.15;93619.03;5082902;28;20032;-46
2021/06/25 06:07:29;;;;;;;21.40;16.95;;;;;;;22.25;72.38;93614.25;5075251;28;20441;-47
2021/06/25 06:09:54;;;;;;;24.98;15.93;;;;;;;22.38;71.11;93622.00;5071263;28;20024;-47
2021/06/25 06:12:20;;;;;;;28.00;16.92;;;;;;;22.46;72.37;93622.41;5072769;28;20083;-49
2021/06/25 06:14:46;;;;;;;24.00;13.13;;;;;;;22.56;68.57;93620.88;5072652;28;20024;-47
2021/06/25 06:17:11;;;;;;;14.77;11.43;;;;;;;22.59;66.51;93611.19;5072806;28;20039;-46
2021/06/25 06:19:41;;;;;;;19.35;11.65;;;;;;;22.67;67.49;93618.63;5092305;28;20575;-46
2021/06/25 06:36:10;;;;;;;23.00;12.02;;;;;;;23.41;67.32;93633.72;5096249;28;20054;-48
2021/06/25 06:38:36;;;;;;;17.67;10.43;;;;;;;23.56;66.59;93633.03;5091919;28;20111;-49
2021/06/25 06:41:02;;;;;;;25.65;11.10;;;;;;;23.73;67.02;93635.28;5091938;28;20413;-50
2021/06/25 06:43:27;;;;;;;26.33;10.38;;;;;;;23.84;64.78;93630.84;5091978;28;20035;-52
2021/06/25 06:45:52;;;;;;;23.75;10.68;;;;;;;23.92;64.71;93631.97;5091795;28;20024;-47
2021/06/25 06:48:18;;;;;;;20.00;9.93;;;;;;;24.07;64.52;93630.56;5091634;28;20032;-46
2021/06/25 06:50:43;;;;;;;20.10;8.93;;;;;;;24.23;63.19;93625.69;5089177;28;20028;-49
2021/06/25 06:53:09;;;;;;;19.05;8.98;;;;;;;24.33;64.04;93631.03;5092022;28;20454;-50
2021/06/25 06:55:42;;;;;;;25.13;8.80;;;;;;;24.37;63.81;93637.59;5100737;28;20023;-48
2021/06/25 06:58:08;;;;;;;22.70;10.00;;;;;;;24.45;62.14;93632.31;5080806;28;20621;-47
2021/06/25 07:00:33;;;;;;;19.75;8.88;;;;;;;24.58;62.17;93627.97;5091960;28;20032;-47
2021/06/25 07:02:59;;;;;;;18.27;9.73;;;;;;;24.61;62.11;93630.25;5092273;28;20036;-47
2021/06/25 07:05:24;;;;;;;20.95;9.55;;;;;;;24.73;63.04;93619.47;5103822;28;20085;-50
2021/06/25 07:07:50;;;;;;;19.83;8.60;;;;;;;24.70;61.06;93623.59;5096442;28;20027;-47
2021/06/25 07:10:15;;;;;;;20.67;9.85;;;;;;;24.87;62.13;93622.22;5093769;28;20028;-47
2021/06/25 07:12:42;;;;;;;23.45;10.48;;;;;;;25.01;62.66;93620.03;5112263;28;20508;-47
2021/06/25 07:15:08;;;;;;;16.73;8.85;;;;;;;25.13;60.31;93616.97;5105551;28;20069;-46
2021/06/25 07:17:33;;;;;;;23.45;8.07;;;;;;;25.27;58.20;93618.34;5089968;28;20028;-46
2021/06/25 07:19:59;;;;;;;23.27;9.38;;;;;;;25.40;62.44;93617.44;5090259;28;20020;-48
2021/06/25 07:22:25;;;;;;;22.25;7.85;;;;;;;25.44;59.19;93620.50;5091791;28;20032;-46
2021/06/25 07:24:51;;;;;;;13.90;7.75;;;;;;;25.60;59.77;93617.56;5077602;28;20024;-47
2021/06/25 07:27:17;;;;;;;20.65;8.15;;;;;;;25.77;59.05;93616.88;5071256;28;20086;-46
2021/06/25 07:29:43;;;;;;;19.08;8.27;;;;;;;25.92;59.15;93616.06;5071389;28;20016;-48
2021/06/25 07:32:09;;;;;;;19.02;8.27;;;;;;;26.25;59.00;93613.16;5071363;28;20108;-49
2021/06/25 07:34:35;;;;;;;17.83;7.22;;;;;;;26.53;57.02;93624.81;5071114;28;20529;-48
2021/06/25 07:37:00;;;;;;;22.60;7.32;;;;;;;26.92;54.61;93607.88;5075734;28;20042;-47
2021/06/25 07:39:26;;;;;;;19.30;7.35;;;;;;;27.26;55.35;93608.38;5091290;28;20069;-47
2021/06/25 07:41:51;;;;;;;15.40;6.63;;;;;;;27.67;54.62;93608.38;5106461;28;20106;-47
2021/06/25 07:44:17;;;;;;;16.23;6.75;;;;;;;28.03;53.90;93605.28;5111853;28;20019;-47
2021/06/25 07:46:42;;;;;;;16.38;7.00;;;;;;;28.51;52.75;93604.66;5111830;28;20058;-47
2021/06/25 07:49:08;;;;;;;22.30;7.50;;;;;;;29.12;51.42;93609.25;5111847;28;20028;-48
2021/06/25 07:51:34;;;;;;;21.45;7.97;;;;;;;29.75;51.00;93601.03;5111455;28;20085;-49
2021/06/25 07:53:59;;;;;;;27.25;9.82;;;;;;;30.33;48.18;93601.72;5098877;28;20028;-48
2021/06/25 07:56:25;;;;;;;18.17;8.10;;;;;;;30.87;47.01;93605.06;5070748;28;20024;-46
2021/06/25 07:58:50;;;;;;;17.55;7.75;;;;;;;31.41;44.74;93608.28;5070737;28;20020;-49
2021/06/25 08:01:16;;;;;;;28.85;8.50;;;;;;;31.91;44.23;93600.63;5070655;28;20017;-49
2021/06/25 08:03:41;;;;;;;19.75;7.90;;;;;;;32.41;43.29;93595.00;5093973;28;20031;-49
2021/06/25 08:06:07;;;;;;;23.02;8.05;;;;;;;32.51;41.90;93588.75;5088442;28;20020;-49
2021/06/25 08:08:32;;;;;;;18.40;6.50;;;;;;;33.01;42.87;93598.00;5070770;28;20028;-48
2021/06/25 08:10:58;;;;;;;14.90;6.70;;;;;;;33.50;41.45;93591.47;5070298;28;20527;-48
2021/06/25 08:13:23;;;;;;;19.75;6.68;;;;;;;33.79;40.12;93598.19;5071525;28;20024;-47
2021/06/25 08:15:49;;;;;;;13.90;6.45;;;;;;;34.14;39.32;93597.09;5090492;28;20024;-49
2021/06/25 08:18:16;;;;;;;21.33;6.22;;;;;;;34.61;37.92;93600.31;5090655;28;20027;-49
2021/06/25 08:20:41;;;;;;;16.80;8.27;;;;;;;35.05;38.44;93597.72;5090231;28;20040;-48
2021/06/25 08:23:07;;;;;;;18.55;6.97;;;;;;;35.36;36.97;93589.94;5090635;28;20026;-47
2021/06/25 08:25:32;;;;;;;16.35;6.95;;;;;;;35.64;35.60;93587.91;5090432;28;20405;-48
2021/06/25 08:27:58;;;;;;;17.02;6.45;;;;;;;35.78;34.56;93596.53;5090668;28;20024;-48
2021/06/25 08:30:25;;;;;;;17.95;7.78;;;;;;;36.16;35.41;93595.88;5090143;28;20024;-46
2021/06/25 08:32:51;;;;;;;18.20;6.93;;;;;;;36.03;35.26;93593.72;5089423;28;20024;-48
2021/06/25 08:35:17;;;;;;;15.98;8.70;;;;;;;36.33;35.33;93591.56;5090428;28;20085;-48
2021/06/25 08:37:42;;;;;;;18.75;6.57;;;;;;;36.80;34.75;93597.25;5090392;28;20016;-48
2021/06/25 08:40:08;;;;;;;19.27;6.28;;;;;;;36.98;34.44;93606.63;5078381;28;20024;-47
2021/06/25 08:42:37;;;;;;;29.67;7.90;;;;;;;37.37;33.62;93604.34;5090586;28;20034;-45
2021/06/25 08:45:07;;;;;;;26.65;6.57;;;;;;;37.57;33.10;93598.47;5090342;28;20027;-46
2021/06/25 08:47:39;;;;;;;23.40;7.07;;;;;;;37.64;32.96;93590.53;5090243;28;20032;-46
2021/06/25 08:50:05;;;;;;;13.60;6.93;;;;;;;38.00;32.55;93593.19;5085889;28;20029;-47
2021/06/25 08:52:31;;;;;;;17.77;6.40;;;;;;;38.30;32.16;93601.66;5086051;28;20046;-48
2021/06/25 08:54:56;;;;;;;20.92;6.32;;;;;;;38.44;30.99;93604.41;5073555;28;20032;-47
2021/06/25 08:57:22;;;;;;;27.98;6.85;;;;;;;38.68;31.34;93595.56;5069700;28;20036;-47
2021/06/25 08:59:47;;;;;;;18.08;6.00;;;;;;;38.73;31.33;93595.50;5069965;28;20052;-46
2021/06/25 09:02:14;;;;;;;16.58;6.55;;;;;;;38.92;31.08;93588.81;5069594;28;20482;-48
2021/06/25 09:04:41;;;;;;;15.25;5.82;;;;;;;38.89;30.72;93601.13;5081244;28;20020;-46
2021/06/25 09:07:07;;;;;;;19.30;6.38;;;;;;;38.88;31.44;93591.75;5088629;28;20030;-45
2021/06/25 09:09:51;;;;;;;23.50;7.22;;;;;;;39.50;30.18;93590.34;5088160;28;20032;-44
2021/06/25 09:12:23;;;;;;;25.55;6.57;;;;;;;39.48;30.11;93581.69;5087058;28;20028;-45
2021/06/25 09:15:05;;;;;;;19.65;5.88;;;;;;;39.58;29.60;93592.41;5089874;28;20785;-47
2021/06/25 09:17:34;;;;;;;18.05;6.45;;;;;;;39.52;29.29;93590.31;5088004;28;20031;-47
2021/06/25 09:20:04;;;;;;;21.10;7.88;;;;;;;39.14;30.58;93588.59;5089347;28;20458;-47
2021/06/25 09:22:30;;;;;;;19.52;6.15;;;;;;;38.77;29.58;93583.94;5088958;28;20054;-45
2021/06/25 09:25:07;;;;;;;16.00;7.05;;;;;;;39.16;30.30;93579.19;5088172;28;20057;-47
2021/06/25 09:27:33;;;;;;;19.90;6.63;;;;;;;39.46;31.00;93578.84;5089215;28;20042;-47
2021/06/25 09:30:06;;;;;;;24.25;6.07;;;;;;;39.77;29.88;93574.09;5087661;28;20121;-45
2021/06/25 09:32:37;;;;;;;20.10;6.75;;;;;;;39.89;28.89;93571.03;5088757;28;20039;-44
2021/06/25 09:35:17;;;;;;;19.50;7.20;;;;;;;39.87;28.68;93573.94;5087334;28;20049;-47
2021/06/25 09:37:47;;;;;;;18.98;6.78;;;;;;;39.75;29.69;93574.13;5087394;28;20020;-45
2021/06/25 09:40:14;;;;;;;21.92;7.38;;;;;;;40.06;28.57;93577.31;5089235;28;20409;-46
2021/06/25 09:42:43;;;;;;;21.33;7.00;;;;;;;40.28;28.31;93568.28;5089280;28;20016;-45
2021/06/25 09:45:19;;;;;;;17.55;6.80;;;;;;;39.74;28.96;93566.19;5093533;28;20046;-45
2021/06/25 09:47:51;;;;;;;20.63;6.32;;;;;;;39.98;28.84;93565.84;5090542;28;20020;-44
2021/06/25 09:50:19;;;;;;;16.17;6.75;;;;;;;39.85;28.66;93562.38;5090971;28;20024;-45
2021/06/25 09:53:05;;;;;;;21.73;7.25;;;;;;;39.78;28.49;93572.63;5093241;28;20424;-45
2021/06/25 09:55:51;;;;;;;23.95;6.03;;;;;;;40.04;28.01;93562.88;5091562;28;20031;-44
2021/06/25 10:01:26;;;;;;;21.17;7.10;;;;;;;40.18;28.73;93556.16;5092723;28;20035;-46
2021/06/25 10:03:59;;;;;;;19.42;7.35;;;;;;;39.79;29.72;93553.81;5092475;28;20020;-45
2021/06/25 10:06:27;;;;;;;19.23;6.28;;;;;;;39.58;30.48;93564.25;5092772;28;20020;-46
2021/06/25 10:08:53;;;;;;;23.60;7.43;;;;;;;39.38;31.34;93562.31;5092573;28;20028;-46
2021/06/25 10:11:30;;;;;;;18.95;7.03;;;;;;;39.22;30.30;93558.91;5093099;28;20028;-47
2021/06/25 10:13:59;;;;;;;24.05;7.38;;;;;;;39.02;31.28;93556.22;5093162;28;20073;-45
2021/06/25 10:16:25;;;;;;;17.52;6.70;;;;;;;38.19;30.18;93550.50;5092857;28;20027;-43
2021/06/25 10:18:53;;;;;;;19.50;6.35;;;;;;;37.47;32.33;93552.44;5079980;28;20020;-44
2021/06/25 10:21:21;;;;;;;17.73;7.13;;;;;;;37.52;32.45;93547.38;5072458;28;20074;-44
2021/06/25 10:23:52;;;;;;;25.95;6.68;;;;;;;37.83;31.75;93549.38;5072463;28;20161;-42
2021/06/25 10:26:20;;;;;;;17.45;6.15;;;;;;;37.92;31.99;93558.66;5080145;28;20535;-45
2021/06/25 10:28:48;;;;;;;22.83;6.05;;;;;;;37.99;30.56;93548.50;5092167;28;20508;-45
2021/06/25 10:31:15;;;;;;;;;;;;;;;37.95;30.54;93543.50;5092547;28;20039;-46
2021/06/25 10:33:41;;;;;;;19.60;6.30;;;;;;;37.65;29.37;93545.84;5092870;28;19908;-44
2021/06/25 10:36:19;;;;;;;23.25;6.88;;;;;;;37.81;29.88;93552.25;5092424;28;20027;-44
2021/06/25 10:38:46;;;;;;;27.52;6.93;;;;;;;37.82;28.22;93547.19;5092343;28;20047;-46
2021/06/25 10:41:14;;;;;;;28.67;6.88;;;;;;;37.97;27.74;93554.28;5092194;28;20020;-45
2021/06/25 10:43:47;;;;;;;16.00;6.00;;;;;;;38.19;28.55;93548.34;5076247;28;20036;-47
2021/06/25 10:46:34;;;;;;;26.45;5.85;;;;;;;38.03;27.87;93547.78;5072048;28;20028;-45
2021/06/25 10:49:09;;;;;;;22.42;5.85;;;;;;;37.87;28.26;93525.53;5072000;28;20028;-45
2021/06/25 10:51:36;;;;;;;20.80;6.15;;;;;;;37.58;30.23;93539.41;5071872;28;20024;-47
2021/06/25 10:54:16;;;;;;;21.37;6.53;;;;;;;37.59;28.75;93543.00;5083844;28;20039;-46
2021/06/25 10:56:47;;;;;;;16.08;5.38;;;;;;;37.65;27.42;93528.56;5089293;28;20509;-45
2021/06/25 10:59:23;;;;;;;20.15;5.93;;;;;;;37.62;27.89;93532.91;5092044;28;20092;-45
2021/06/25 11:02:09;;;;;;;17.15;4.88;;;;;;;37.67;27.21;93532.13;5091822;28;20044;-46
2021/06/25 11:04:36;;;;;;;15.13;4.78;;;;;;;37.57;26.91;93534.38;5085155;28;20095;-44
2021/06/25 11:07:08;;;;;;;18.58;5.68;;;;;;;37.57;28.22;93523.56;5081856;28;20082;-45
2021/06/25 11:09:49;;;;;;;17.75;5.85;;;;;;;37.51;28.66;93529.34;5086291;28;20035;-44
2021/06/25 11:12:35;;;;;;;17.45;4.97;;;;;;;37.37;28.10;93523.69;5081359;28;20020;-45
2021/06/25 11:15:04;;;;;;;19.77;5.38;;;;;;;37.30;27.70;93518.66;5086851;28;20027;-44
2021/06/25 11:17:48;;;;;;;16.77;5.20;;;;;;;37.24;27.60;93523.00;5091207;28;20032;-44
2021/06/25 11:20:16;;;;;;;20.20;5.97;;;;;;;37.10;28.71;93525.25;5087415;28;20149;-44
2021/06/25 11:22:42;;;;;;;16.70;5.10;;;;;;;36.91;28.86;93498.69;5091582;28;20454;-46
2021/06/25 11:25:13;;;;;;;22.88;5.20;;;;;;;36.99;28.92;93515.22;5091836;28;20103;-44
2021/06/25 11:31:13;;;;;;;24.60;5.63;;;;;;;36.70;28.56;93514.56;5091538;28;20016;-44
2021/06/25 11:33:46;;;;;;;17.13;5.47;;;;;;;36.50;27.07;93514.63;5091230;28;20501;-44
2021/06/25 11:36:27;;;;;;;16.33;5.20;;;;;;;36.00;25.80;93511.78;5090092;28;20031;-44
2021/06/25 11:38:52;;;;;;;16.17;5.90;;;;;;;36.00;29.55;93517.53;5091477;28;20024;-45
2021/06/25 11:41:18;;;;;;;17.05;5.15;;;;;;;35.98;28.45;93512.50;5091731;28;20016;-45